sensor_id;sensor_type;location;lat;lon;timestamp;temperature;humidity
67054;SHT31;53960;51.826;5.850;2022-10-26T00:01:24;11.39;92.42
67054;SHT31;53960;51.826;5.850;2022-10-26T00:03:50;11.42;92.57
67054;SHT31;53960;51.826;5.850;2022-10-26T00:06:20;11.42;92.41
67054;SHT31;53960;51.826;5.850;2022-10-26T00:08:46;11.42;92.57
67054;SHT31;53960;51.826;5.850;2022-10-26T00:11:13;11.42;92.48
67054;SHT31;53960;51.826;5.850;2022-10-26T00:13:39;11.42;92.63
67054;SHT31;53960;51.826;5.850;2022-10-26T00:16:14;11.46;92.54
67054;SHT31;53960;51.826;5.850;2022-10-26T00:18:40;11.48;92.70
67054;SHT31;53960;51.826;5.850;2022-10-26T00:21:06;11.46;92.60
67054;SHT31;53960;51.826;5.850;2022-10-26T00:23:32;11.48;92.63
67054;SHT31;53960;51.826;5.850;2022-10-26T00:25:58;11.48;92.62
67054;SHT31;53960;51.826;5.850;2022-10-26T00:28:24;11.45;92.52
67054;SHT31;53960;51.826;5.850;2022-10-26T00:30:49;11.48;92.59
67054;SHT31;53960;51.826;5.850;2022-10-26T00:33:14;11.50;92.44
67054;SHT31;53960;51.826;5.850;2022-10-26T00:35:40;11.48;92.62
67054;SHT31;53960;51.826;5.850;2022-10-26T00:38:05;11.51;92.71
67054;SHT31;53960;51.826;5.850;2022-10-26T00:40:30;11.51;92.83
67054;SHT31;53960;51.826;5.850;2022-10-26T00:42:56;11.57;92.59
67054;SHT31;53960;51.826;5.850;2022-10-26T00:45:24;11.59;92.64
67054;SHT31;53960;51.826;5.850;2022-10-26T00:47:52;11.58;92.61
67054;SHT31;53960;51.826;5.850;2022-10-26T00:50:30;11.59;92.61
67054;SHT31;53960;51.826;5.850;2022-10-26T00:52:58;11.62;92.71
67054;SHT31;53960;51.826;5.850;2022-10-26T00:55:26;11.61;92.56
67054;SHT31;53960;51.826;5.850;2022-10-26T00:57:53;11.63;92.64
67054;SHT31;53960;51.826;5.850;2022-10-26T01:00:19;11.63;92.63
67054;SHT31;53960;51.826;5.850;2022-10-26T01:02:46;11.66;92.70
67054;SHT31;53960;51.826;5.850;2022-10-26T01:05:14;11.68;92.53
67054;SHT31;53960;51.826;5.850;2022-10-26T01:07:41;11.66;92.66
67054;SHT31;53960;51.826;5.850;2022-10-26T01:10:08;11.68;92.73
67054;SHT31;53960;51.826;5.850;2022-10-26T01:12:33;11.71;92.74
67054;SHT31;53960;51.826;5.850;2022-10-26T01:14:59;11.72;92.74
67054;SHT31;53960;51.826;5.850;2022-10-26T01:17:50;11.72;92.57
67054;SHT31;53960;51.826;5.850;2022-10-26T01:20:30;11.79;92.60
67054;SHT31;53960;51.826;5.850;2022-10-26T01:29:13;11.90;92.33
67054;SHT31;53960;51.826;5.850;2022-10-26T01:31:57;11.99;91.87
67054;SHT31;53960;51.826;5.850;2022-10-26T01:34:35;12.02;91.88
67054;SHT31;53960;51.826;5.850;2022-10-26T01:37:11;12.07;91.54
67054;SHT31;53960;51.826;5.850;2022-10-26T01:39:46;12.10;91.72
67054;SHT31;53960;51.826;5.850;2022-10-26T01:42:14;12.04;91.94
67054;SHT31;53960;51.826;5.850;2022-10-26T01:44:51;12.07;91.78
67054;SHT31;53960;51.826;5.850;2022-10-26T01:47:19;12.12;91.53
67054;SHT31;53960;51.826;5.850;2022-10-26T01:49:51;12.16;91.33
67054;SHT31;53960;51.826;5.850;2022-10-26T01:52:18;12.14;91.45
67054;SHT31;53960;51.826;5.850;2022-10-26T01:54:44;12.10;91.68
67054;SHT31;53960;51.826;5.850;2022-10-26T01:57:12;12.10;91.68
67054;SHT31;53960;51.826;5.850;2022-10-26T02:06:00;12.20;91.23
67054;SHT31;53960;51.826;5.850;2022-10-26T02:13:47;12.13;91.47
67054;SHT31;53960;51.826;5.850;2022-10-26T02:16:16;12.10;91.71
67054;SHT31;53960;51.826;5.850;2022-10-26T02:21:17;12.12;91.69
67054;SHT31;53960;51.826;5.850;2022-10-26T02:23:45;12.09;91.78
67054;SHT31;53960;51.826;5.850;2022-10-26T02:26:12;12.10;91.84
67054;SHT31;53960;51.826;5.850;2022-10-26T02:28:49;12.10;92.04
67054;SHT31;53960;51.826;5.850;2022-10-26T02:31:15;12.13;92.08
67054;SHT31;53960;51.826;5.850;2022-10-26T02:33:47;12.12;92.23
67054;SHT31;53960;51.826;5.850;2022-10-26T02:36:16;12.10;92.06
67054;SHT31;53960;51.826;5.850;2022-10-26T02:38:44;12.10;92.08
67054;SHT31;53960;51.826;5.850;2022-10-26T02:41:12;12.12;91.92
67054;SHT31;53960;51.826;5.850;2022-10-26T02:43:43;12.12;91.83
67054;SHT31;53960;51.826;5.850;2022-10-26T02:46:12;12.16;91.74
67054;SHT31;53960;51.826;5.850;2022-10-26T02:48:39;12.16;92.14
67054;SHT31;53960;51.826;5.850;2022-10-26T02:51:20;12.17;91.97
67054;SHT31;53960;51.826;5.850;2022-10-26T02:54:02;12.19;91.84
67054;SHT31;53960;51.826;5.850;2022-10-26T02:56:51;12.23;91.86
67054;SHT31;53960;51.826;5.850;2022-10-26T02:59:21;12.24;91.79
67054;SHT31;53960;51.826;5.850;2022-10-26T03:01:47;12.29;91.79
67054;SHT31;53960;51.826;5.850;2022-10-26T03:04:14;12.33;91.40
67054;SHT31;53960;51.826;5.850;2022-10-26T03:06:39;12.40;90.76
67054;SHT31;53960;51.826;5.850;2022-10-26T03:09:04;12.44;90.74
67054;SHT31;53960;51.826;5.850;2022-10-26T03:11:30;12.45;90.64
67054;SHT31;53960;51.826;5.850;2022-10-26T03:13:55;12.45;90.71
67054;SHT31;53960;51.826;5.850;2022-10-26T03:16:20;12.47;90.59
67054;SHT31;53960;51.826;5.850;2022-10-26T03:18:46;12.45;90.83
67054;SHT31;53960;51.826;5.850;2022-10-26T03:21:11;12.47;90.69
67054;SHT31;53960;51.826;5.850;2022-10-26T03:23:36;12.44;90.70
67054;SHT31;53960;51.826;5.850;2022-10-26T03:26:02;12.42;90.80
67054;SHT31;53960;51.826;5.850;2022-10-26T03:28:27;12.36;91.15
67054;SHT31;53960;51.826;5.850;2022-10-26T03:30:52;12.31;91.20
67054;SHT31;53960;51.826;5.850;2022-10-26T03:33:18;12.31;90.92
67054;SHT31;53960;51.826;5.850;2022-10-26T03:35:43;12.31;90.96
67054;SHT31;53960;51.826;5.850;2022-10-26T03:38:08;12.26;91.12
67054;SHT31;53960;51.826;5.850;2022-10-26T03:40:34;12.19;91.34
67054;SHT31;53960;51.826;5.850;2022-10-26T03:43:00;12.16;91.53
67054;SHT31;53960;51.826;5.850;2022-10-26T03:45:26;12.13;91.72
67054;SHT31;53960;51.826;5.850;2022-10-26T03:47:51;12.12;91.76
67054;SHT31;53960;51.826;5.850;2022-10-26T03:50:18;12.12;91.90
67054;SHT31;53960;51.826;5.850;2022-10-26T03:52:45;12.14;91.74
67054;SHT31;53960;51.826;5.850;2022-10-26T03:55:11;12.14;91.90
67054;SHT31;53960;51.826;5.850;2022-10-26T03:57:43;12.24;91.65
67054;SHT31;53960;51.826;5.850;2022-10-26T04:00:11;12.29;91.45
67054;SHT31;53960;51.826;5.850;2022-10-26T04:02:36;12.29;91.46
67054;SHT31;53960;51.826;5.850;2022-10-26T04:05:02;12.31;91.42
67054;SHT31;53960;51.826;5.850;2022-10-26T04:07:28;12.40;90.88
67054;SHT31;53960;51.826;5.850;2022-10-26T04:09:53;12.41;90.94
67054;SHT31;53960;51.826;5.850;2022-10-26T04:12:18;12.54;90.43
67054;SHT31;53960;51.826;5.850;2022-10-26T04:14:44;12.61;90.26
67054;SHT31;53960;51.826;5.850;2022-10-26T04:17:09;12.62;89.89
67054;SHT31;53960;51.826;5.850;2022-10-26T04:19:34;12.68;89.82
67054;SHT31;53960;51.826;5.850;2022-10-26T04:22:00;12.62;90.15
67054;SHT31;53960;51.826;5.850;2022-10-26T04:24:25;12.68;89.88
67054;SHT31;53960;51.826;5.850;2022-10-26T04:26:50;12.67;89.84
67054;SHT31;53960;51.826;5.850;2022-10-26T04:29:16;12.71;89.75
67054;SHT31;53960;51.826;5.850;2022-10-26T04:31:41;12.72;89.64
67054;SHT31;53960;51.826;5.850;2022-10-26T04:34:07;12.77;89.55
67054;SHT31;53960;51.826;5.850;2022-10-26T04:36:32;12.74;89.49
67054;SHT31;53960;51.826;5.850;2022-10-26T04:38:59;12.75;89.70
67054;SHT31;53960;51.826;5.850;2022-10-26T04:41:24;12.78;89.69
67054;SHT31;53960;51.826;5.850;2022-10-26T04:43:49;12.79;89.53
67054;SHT31;53960;51.826;5.850;2022-10-26T04:46:15;12.87;89.15
67054;SHT31;53960;51.826;5.850;2022-10-26T04:48:40;12.85;89.41
67054;SHT31;53960;51.826;5.850;2022-10-26T04:51:05;12.85;89.36
67054;SHT31;53960;51.826;5.850;2022-10-26T04:53:31;12.84;89.17
67054;SHT31;53960;51.826;5.850;2022-10-26T04:55:58;12.87;89.29
67054;SHT31;53960;51.826;5.850;2022-10-26T04:58:25;12.84;89.33
67054;SHT31;53960;51.826;5.850;2022-10-26T05:00:50;12.85;89.29
67054;SHT31;53960;51.826;5.850;2022-10-26T05:03:16;12.87;89.41
67054;SHT31;53960;51.826;5.850;2022-10-26T05:05:41;12.92;89.19
67054;SHT31;53960;51.826;5.850;2022-10-26T05:08:06;12.96;89.13
67054;SHT31;53960;51.826;5.850;2022-10-26T05:10:32;12.98;88.83
67054;SHT31;53960;51.826;5.850;2022-10-26T05:12:58;12.96;89.13
67054;SHT31;53960;51.826;5.850;2022-10-26T05:15:24;13.01;88.83
67054;SHT31;53960;51.826;5.850;2022-10-26T05:18:02;13.03;88.70
67054;SHT31;53960;51.826;5.850;2022-10-26T05:20:29;13.08;88.54
67054;SHT31;53960;51.826;5.850;2022-10-26T05:23:00;13.12;88.31
67054;SHT31;53960;51.826;5.850;2022-10-26T05:25:27;13.10;88.66
67054;SHT31;53960;51.826;5.850;2022-10-26T05:28:00;13.09;88.40
67054;SHT31;53960;51.826;5.850;2022-10-26T05:30:27;13.10;88.65
67054;SHT31;53960;51.826;5.850;2022-10-26T05:32:56;13.09;88.37
67054;SHT31;53960;51.826;5.850;2022-10-26T05:35:22;13.09;88.56
67054;SHT31;53960;51.826;5.850;2022-10-26T05:37:47;13.12;88.26
67054;SHT31;53960;51.826;5.850;2022-10-26T05:40:13;13.09;88.71
67054;SHT31;53960;51.826;5.850;2022-10-26T05:42:39;13.03;88.69
67054;SHT31;53960;51.826;5.850;2022-10-26T05:45:05;13.12;88.40
67054;SHT31;53960;51.826;5.850;2022-10-26T05:47:30;13.12;88.40
67054;SHT31;53960;51.826;5.850;2022-10-26T05:49:55;13.20;88.10
67054;SHT31;53960;51.826;5.850;2022-10-26T05:52:21;13.19;88.19
67054;SHT31;53960;51.826;5.850;2022-10-26T05:54:46;13.20;88.08
67054;SHT31;53960;51.826;5.850;2022-10-26T05:57:12;13.26;87.87
67054;SHT31;53960;51.826;5.850;2022-10-26T05:59:38;13.23;88.15
67054;SHT31;53960;51.826;5.850;2022-10-26T06:02:24;13.27;87.95
67054;SHT31;53960;51.826;5.850;2022-10-26T06:04:56;13.26;87.99
67054;SHT31;53960;51.826;5.850;2022-10-26T06:07:23;13.24;88.07
67054;SHT31;53960;51.826;5.850;2022-10-26T06:09:48;13.26;88.14
67054;SHT31;53960;51.826;5.850;2022-10-26T06:12:14;13.33;87.74
67054;SHT31;53960;51.826;5.850;2022-10-26T06:14:40;13.33;87.72
67054;SHT31;53960;51.826;5.850;2022-10-26T06:17:34;13.38;87.69
67054;SHT31;53960;51.826;5.850;2022-10-26T06:28:37;13.39;87.60
67054;SHT31;53960;51.826;5.850;2022-10-26T06:31:05;13.40;87.35
67054;SHT31;53960;51.826;5.850;2022-10-26T06:33:31;13.44;87.04
67054;SHT31;53960;51.826;5.850;2022-10-26T06:38:38;13.32;87.61
67054;SHT31;53960;51.826;5.850;2022-10-26T06:41:05;13.26;88.01
67054;SHT31;53960;51.826;5.850;2022-10-26T06:43:33;13.29;88.02
67054;SHT31;53960;51.826;5.850;2022-10-26T06:48:59;13.38;87.94
67054;SHT31;53960;51.826;5.850;2022-10-26T06:51:22;13.39;87.83
67054;SHT31;53960;51.826;5.850;2022-10-26T06:53:58;13.44;87.52
67054;SHT31;53960;51.826;5.850;2022-10-26T06:56:25;13.43;87.77
67054;SHT31;53960;51.826;5.850;2022-10-26T06:58:52;13.44;87.56
67054;SHT31;53960;51.826;5.850;2022-10-26T07:01:18;13.43;87.71
67054;SHT31;53960;51.826;5.850;2022-10-26T07:03:44;13.46;87.68
67054;SHT31;53960;51.826;5.850;2022-10-26T07:06:09;13.44;87.62
67054;SHT31;53960;51.826;5.850;2022-10-26T07:08:35;13.47;87.62
67054;SHT31;53960;51.826;5.850;2022-10-26T07:11:00;13.44;87.80
67054;SHT31;53960;51.826;5.850;2022-10-26T07:13:25;13.42;87.97
67054;SHT31;53960;51.826;5.850;2022-10-26T07:15:50;13.46;87.89
67054;SHT31;53960;51.826;5.850;2022-10-26T07:18:16;13.43;88.24
67054;SHT31;53960;51.826;5.850;2022-10-26T07:20:41;13.47;88.25
67054;SHT31;53960;51.826;5.850;2022-10-26T07:23:08;13.56;88.10
67054;SHT31;53960;51.826;5.850;2022-10-26T07:25:37;13.73;87.66
67054;SHT31;53960;51.826;5.850;2022-10-26T07:28:08;13.84;87.13
67054;SHT31;53960;51.826;5.850;2022-10-26T07:30:35;13.98;86.29
67054;SHT31;53960;51.826;5.850;2022-10-26T07:33:11;14.04;86.40
67054;SHT31;53960;51.826;5.850;2022-10-26T07:35:37;14.17;85.98
67054;SHT31;53960;51.826;5.850;2022-10-26T07:38:03;14.28;85.38
67054;SHT31;53960;51.826;5.850;2022-10-26T07:40:29;14.30;85.12
67054;SHT31;53960;51.826;5.850;2022-10-26T07:42:56;14.28;85.48
67054;SHT31;53960;51.826;5.850;2022-10-26T07:45:21;14.36;85.51
67054;SHT31;53960;51.826;5.850;2022-10-26T07:47:48;14.33;85.31
67054;SHT31;53960;51.826;5.850;2022-10-26T07:50:14;14.40;84.91
67054;SHT31;53960;51.826;5.850;2022-10-26T07:52:40;14.52;84.71
67054;SHT31;53960;51.826;5.850;2022-10-26T07:55:08;14.52;84.87
67054;SHT31;53960;51.826;5.850;2022-10-26T07:57:34;14.56;84.68
67054;SHT31;53960;51.826;5.850;2022-10-26T07:59:59;14.59;84.58
67054;SHT31;53960;51.826;5.850;2022-10-26T08:02:25;14.62;84.80
67054;SHT31;53960;51.826;5.850;2022-10-26T08:04:50;14.63;84.45
67054;SHT31;53960;51.826;5.850;2022-10-26T08:07:15;14.69;83.98
67054;SHT31;53960;51.826;5.850;2022-10-26T08:09:41;14.72;84.19
67054;SHT31;53960;51.826;5.850;2022-10-26T08:12:06;14.72;84.23
67054;SHT31;53960;51.826;5.850;2022-10-26T08:14:32;14.76;84.22
67054;SHT31;53960;51.826;5.850;2022-10-26T08:16:57;14.80;84.23
67054;SHT31;53960;51.826;5.850;2022-10-26T08:19:22;14.87;83.71
67054;SHT31;53960;51.826;5.850;2022-10-26T08:21:48;14.91;83.70
67054;SHT31;53960;51.826;5.850;2022-10-26T08:24:13;14.91;83.99
67054;SHT31;53960;51.826;5.850;2022-10-26T08:26:38;14.93;83.65
67054;SHT31;53960;51.826;5.850;2022-10-26T08:29:04;14.93;84.08
67054;SHT31;53960;51.826;5.850;2022-10-26T08:31:29;14.93;84.21
67054;SHT31;53960;51.826;5.850;2022-10-26T08:33:54;14.96;84.38
67054;SHT31;53960;51.826;5.850;2022-10-26T08:36:23;15.00;84.39
67054;SHT31;53960;51.826;5.850;2022-10-26T08:38:49;15.07;84.48
67054;SHT31;53960;51.826;5.850;2022-10-26T08:41:14;15.08;84.29
67054;SHT31;53960;51.826;5.850;2022-10-26T08:43:54;15.11;84.33
67054;SHT31;53960;51.826;5.850;2022-10-26T08:46:24;15.16;84.66
67054;SHT31;53960;51.826;5.850;2022-10-26T08:48:53;15.23;84.42
67054;SHT31;53960;51.826;5.850;2022-10-26T08:51:24;15.25;84.29
67054;SHT31;53960;51.826;5.850;2022-10-26T08:53:52;15.31;84.16
67054;SHT31;53960;51.826;5.850;2022-10-26T08:56:25;15.34;84.45
67054;SHT31;53960;51.826;5.850;2022-10-26T08:58:57;15.38;84.51
67054;SHT31;53960;51.826;5.850;2022-10-26T09:01:24;15.44;84.12
67054;SHT31;53960;51.826;5.850;2022-10-26T09:03:50;15.59;83.80
67054;SHT31;53960;51.826;5.850;2022-10-26T09:06:23;15.68;83.73
67054;SHT31;53960;51.826;5.850;2022-10-26T09:11:59;15.82;83.48
67054;SHT31;53960;51.826;5.850;2022-10-26T09:22:35;16.03;83.33
67054;SHT31;53960;51.826;5.850;2022-10-26T09:25:22;16.07;83.17
67054;SHT31;53960;51.826;5.850;2022-10-26T09:28:00;16.10;83.52
67054;SHT31;53960;51.826;5.850;2022-10-26T09:30:26;16.14;83.79
67054;SHT31;53960;51.826;5.850;2022-10-26T09:32:58;16.23;83.36
67054;SHT31;53960;51.826;5.850;2022-10-26T09:35:26;16.24;83.07
67054;SHT31;53960;51.826;5.850;2022-10-26T09:37:55;16.23;82.63
67054;SHT31;53960;51.826;5.850;2022-10-26T09:41:04;16.20;83.17
67054;SHT31;53960;51.826;5.850;2022-10-26T09:43:47;16.21;83.52
67054;SHT31;53960;51.826;5.850;2022-10-26T09:46:25;16.31;83.81
67054;SHT31;53960;51.826;5.850;2022-10-26T09:48:59;16.41;83.41
67054;SHT31;53960;51.826;5.850;2022-10-26T09:51:25;16.45;83.28
67054;SHT31;53960;51.826;5.850;2022-10-26T09:53:53;16.47;83.17
67054;SHT31;53960;51.826;5.850;2022-10-26T09:56:18;16.50;83.00
67054;SHT31;53960;51.826;5.850;2022-10-26T09:58:47;16.55;82.88
67054;SHT31;53960;51.826;5.850;2022-10-26T10:06:37;16.76;82.86
67054;SHT31;53960;51.826;5.850;2022-10-26T10:09:11;16.82;82.97
67054;SHT31;53960;51.826;5.850;2022-10-26T10:12:03;16.86;83.13
67054;SHT31;53960;51.826;5.850;2022-10-26T10:14:37;16.91;82.83
67054;SHT31;53960;51.826;5.850;2022-10-26T10:17:05;16.99;82.36
67054;SHT31;53960;51.826;5.850;2022-10-26T10:19:36;17.05;82.54
67054;SHT31;53960;51.826;5.850;2022-10-26T10:22:18;17.05;82.38
67054;SHT31;53960;51.826;5.850;2022-10-26T10:24:55;17.09;82.41
67054;SHT31;53960;51.826;5.850;2022-10-26T10:27:21;17.13;82.49
67054;SHT31;53960;51.826;5.850;2022-10-26T10:29:49;17.16;82.82
67054;SHT31;53960;51.826;5.850;2022-10-26T10:32:23;17.20;82.37
67054;SHT31;53960;51.826;5.850;2022-10-26T10:34:53;17.22;82.54
67054;SHT31;53960;51.826;5.850;2022-10-26T10:37:26;17.29;82.45
67054;SHT31;53960;51.826;5.850;2022-10-26T10:39:57;17.33;82.72
67054;SHT31;53960;51.826;5.850;2022-10-26T10:42:26;17.39;82.37
67054;SHT31;53960;51.826;5.850;2022-10-26T10:44:56;17.43;82.15
67054;SHT31;53960;51.826;5.850;2022-10-26T10:47:24;17.47;82.35
67054;SHT31;53960;51.826;5.850;2022-10-26T10:50:06;17.51;82.40
67054;SHT31;53960;51.826;5.850;2022-10-26T10:52:34;17.50;82.12
67054;SHT31;53960;51.826;5.850;2022-10-26T10:57:56;17.63;82.41
67054;SHT31;53960;51.826;5.850;2022-10-26T11:00:25;17.71;81.80
67054;SHT31;53960;51.826;5.850;2022-10-26T11:11:11;17.88;81.26
67054;SHT31;53960;51.826;5.850;2022-10-26T11:13:42;17.87;80.79
67054;SHT31;53960;51.826;5.850;2022-10-26T11:16:17;17.90;81.16
67054;SHT31;53960;51.826;5.850;2022-10-26T11:19:50;17.94;81.30
67054;SHT31;53960;51.826;5.850;2022-10-26T11:21:56;17.98;81.18
67054;SHT31;53960;51.826;5.850;2022-10-26T11:24:44;18.06;81.19
67054;SHT31;53960;51.826;5.850;2022-10-26T11:27:15;18.12;81.17
67054;SHT31;53960;51.826;5.850;2022-10-26T11:32:22;18.14;80.59
67054;SHT31;53960;51.826;5.850;2022-10-26T11:34:58;18.19;80.43
67054;SHT31;53960;51.826;5.850;2022-10-26T11:37:31;18.21;80.04
67054;SHT31;53960;51.826;5.850;2022-10-26T11:40:07;18.16;80.16
67054;SHT31;53960;51.826;5.850;2022-10-26T11:42:54;18.16;80.50
67054;SHT31;53960;51.826;5.850;2022-10-26T11:45:24;18.16;80.90
67054;SHT31;53960;51.826;5.850;2022-10-26T11:48:21;18.18;80.60
67054;SHT31;53960;51.826;5.850;2022-10-26T11:50:50;18.29;80.64
67054;SHT31;53960;51.826;5.850;2022-10-26T11:53:20;18.26;80.83
67054;SHT31;53960;51.826;5.850;2022-10-26T11:55:51;18.28;81.14
67054;SHT31;53960;51.826;5.850;2022-10-26T11:58:17;18.25;81.14
67054;SHT31;53960;51.826;5.850;2022-10-26T12:00:54;18.21;81.08
67054;SHT31;53960;51.826;5.850;2022-10-26T12:03:33;18.18;81.25
67054;SHT31;53960;51.826;5.850;2022-10-26T12:06:00;18.22;81.66
67054;SHT31;53960;51.826;5.850;2022-10-26T12:08:29;18.25;81.86
67054;SHT31;53960;51.826;5.850;2022-10-26T12:13:48;18.28;81.50
67054;SHT31;53960;51.826;5.850;2022-10-26T12:16:58;18.33;81.07
67054;SHT31;53960;51.826;5.850;2022-10-26T12:19:34;18.41;80.99
67054;SHT31;53960;51.826;5.850;2022-10-26T12:22:04;18.46;81.40
67054;SHT31;53960;51.826;5.850;2022-10-26T12:24:32;18.49;80.56
67054;SHT31;53960;51.826;5.850;2022-10-26T12:27:04;18.45;80.76
67054;SHT31;53960;51.826;5.850;2022-10-26T12:32:03;18.57;79.95
67054;SHT31;53960;51.826;5.850;2022-10-26T12:39:37;18.66;80.43
67054;SHT31;53960;51.826;5.850;2022-10-26T12:47:00;18.64;80.31
67054;SHT31;53960;51.826;5.850;2022-10-26T12:52:32;18.66;79.90
67054;SHT31;53960;51.826;5.850;2022-10-26T13:00:21;18.69;79.52
67054;SHT31;53960;51.826;5.850;2022-10-26T13:03:18;18.70;79.60
67054;SHT31;53960;51.826;5.850;2022-10-26T13:06:03;18.77;80.10
67054;SHT31;53960;51.826;5.850;2022-10-26T13:08:49;18.80;79.62
67054;SHT31;53960;51.826;5.850;2022-10-26T13:11:36;18.83;79.72
67054;SHT31;53960;51.826;5.850;2022-10-26T13:14:19;18.84;79.86
67054;SHT31;53960;51.826;5.850;2022-10-26T13:16:46;18.91;78.73
67054;SHT31;53960;51.826;5.850;2022-10-26T13:19:37;18.90;78.20
67054;SHT31;53960;51.826;5.850;2022-10-26T13:22:03;18.86;78.22
67054;SHT31;53960;51.826;5.850;2022-10-26T13:24:31;18.91;78.59
67054;SHT31;53960;51.826;5.850;2022-10-26T13:29:31;18.90;77.96
67054;SHT31;53960;51.826;5.850;2022-10-26T13:31:57;18.96;77.65
67054;SHT31;53960;51.826;5.850;2022-10-26T13:34:25;19.00;77.85
67054;SHT31;53960;51.826;5.850;2022-10-26T13:37:08;19.01;78.13
67054;SHT31;53960;51.826;5.850;2022-10-26T13:39:40;19.04;78.20
67054;SHT31;53960;51.826;5.850;2022-10-26T13:42:09;19.01;77.98
67054;SHT31;53960;51.826;5.850;2022-10-26T13:44:43;18.99;77.98
67054;SHT31;53960;51.826;5.850;2022-10-26T13:47:22;18.97;78.32
67054;SHT31;53960;51.826;5.850;2022-10-26T13:49:53;18.97;78.45
67054;SHT31;53960;51.826;5.850;2022-10-26T13:52:27;18.96;78.63
67054;SHT31;53960;51.826;5.850;2022-10-26T13:54:56;18.99;78.56
67054;SHT31;53960;51.826;5.850;2022-10-26T13:57:34;19.00;78.57
67054;SHT31;53960;51.826;5.850;2022-10-26T14:00:07;19.07;78.87
67054;SHT31;53960;51.826;5.850;2022-10-26T14:02:33;19.04;78.77
67054;SHT31;53960;51.826;5.850;2022-10-26T14:05:00;19.08;78.51
67054;SHT31;53960;51.826;5.850;2022-10-26T14:07:48;19.08;78.50
67054;SHT31;53960;51.826;5.850;2022-10-26T14:10:29;19.04;78.09
67054;SHT31;53960;51.826;5.850;2022-10-26T14:12:56;19.06;78.55
67054;SHT31;53960;51.826;5.850;2022-10-26T14:15:29;19.04;78.50
67054;SHT31;53960;51.826;5.850;2022-10-26T14:17:56;18.99;78.48
67054;SHT31;53960;51.826;5.850;2022-10-26T14:20:24;19.03;78.64
67054;SHT31;53960;51.826;5.850;2022-10-26T14:22:50;19.00;78.55
67054;SHT31;53960;51.826;5.850;2022-10-26T14:25:24;19.01;78.12
67054;SHT31;53960;51.826;5.850;2022-10-26T14:27:50;19.01;78.36
67054;SHT31;53960;51.826;5.850;2022-10-26T14:32:48;18.97;78.38
67054;SHT31;53960;51.826;5.850;2022-10-26T14:35:14;18.96;78.19
67054;SHT31;53960;51.826;5.850;2022-10-26T14:38:05;18.99;78.39
67054;SHT31;53960;51.826;5.850;2022-10-26T14:40:33;18.96;78.27
67054;SHT31;53960;51.826;5.850;2022-10-26T14:43:01;18.97;78.01
67054;SHT31;53960;51.826;5.850;2022-10-26T14:45:35;18.93;78.32
67054;SHT31;53960;51.826;5.850;2022-10-26T14:48:03;18.91;78.53
67054;SHT31;53960;51.826;5.850;2022-10-26T14:50:30;18.90;78.73
67054;SHT31;53960;51.826;5.850;2022-10-26T14:53:16;18.93;78.50
67054;SHT31;53960;51.826;5.850;2022-10-26T14:55:51;18.93;78.27
67054;SHT31;53960;51.826;5.850;2022-10-26T14:58:22;18.96;78.66
67054;SHT31;53960;51.826;5.850;2022-10-26T15:03:51;18.89;78.50
67054;SHT31;53960;51.826;5.850;2022-10-26T15:08:56;18.74;77.88
67054;SHT31;53960;51.826;5.850;2022-10-26T15:11:23;18.76;78.85
67054;SHT31;53960;51.826;5.850;2022-10-26T15:13:49;18.73;78.25
67054;SHT31;53960;51.826;5.850;2022-10-26T15:16:17;18.76;77.92
67054;SHT31;53960;51.826;5.850;2022-10-26T15:18:44;18.73;77.99
67054;SHT31;53960;51.826;5.850;2022-10-26T15:23:52;18.66;78.46
67054;SHT31;53960;51.826;5.850;2022-10-26T15:26:18;18.55;78.71
67054;SHT31;53960;51.826;5.850;2022-10-26T15:28:44;18.48;78.75
67054;SHT31;53960;51.826;5.850;2022-10-26T15:33:42;18.39;78.77
67054;SHT31;53960;51.826;5.850;2022-10-26T15:36:15;18.32;78.91
67054;SHT31;53960;51.826;5.850;2022-10-26T15:38:42;18.28;78.87
67054;SHT31;53960;51.826;5.850;2022-10-26T15:41:27;18.22;78.92
67054;SHT31;53960;51.826;5.850;2022-10-26T15:43:55;18.25;78.69
67054;SHT31;53960;51.826;5.850;2022-10-26T15:46:21;18.26;78.52
67054;SHT31;53960;51.826;5.850;2022-10-26T15:48:54;18.25;78.89
67054;SHT31;53960;51.826;5.850;2022-10-26T15:51:20;18.25;78.20
67054;SHT31;53960;51.826;5.850;2022-10-26T15:53:45;18.26;78.54
67054;SHT31;53960;51.826;5.850;2022-10-26T15:56:14;18.16;78.71
67054;SHT31;53960;51.826;5.850;2022-10-26T15:58:41;18.11;79.17
67054;SHT31;53960;51.826;5.850;2022-10-26T16:01:06;18.00;79.37
67054;SHT31;53960;51.826;5.850;2022-10-26T16:03:31;17.91;79.55
67054;SHT31;53960;51.826;5.850;2022-10-26T16:05:59;17.81;79.91
67054;SHT31;53960;51.826;5.850;2022-10-26T16:08:29;17.75;80.06
67054;SHT31;53960;51.826;5.850;2022-10-26T16:10:55;17.73;80.14
67054;SHT31;53960;51.826;5.850;2022-10-26T16:13:21;17.64;80.45
67054;SHT31;53960;51.826;5.850;2022-10-26T16:15:46;17.62;80.51
67054;SHT31;53960;51.826;5.850;2022-10-26T16:18:13;17.53;80.86
67054;SHT31;53960;51.826;5.850;2022-10-26T16:20:38;17.47;81.12
67054;SHT31;53960;51.826;5.850;2022-10-26T16:23:04;17.37;81.33
67054;SHT31;53960;51.826;5.850;2022-10-26T16:25:35;17.27;81.87
67054;SHT31;53960;51.826;5.850;2022-10-26T16:28:03;17.23;81.84
67054;SHT31;53960;51.826;5.850;2022-10-26T16:30:29;17.16;82.30
67054;SHT31;53960;51.826;5.850;2022-10-26T16:32:55;17.13;82.36
67054;SHT31;53960;51.826;5.850;2022-10-26T16:35:20;17.03;82.54
67054;SHT31;53960;51.826;5.850;2022-10-26T16:37:45;16.94;83.12
67054;SHT31;53960;51.826;5.850;2022-10-26T16:40:11;16.81;83.76
67054;SHT31;53960;51.826;5.850;2022-10-26T16:42:36;16.72;83.76
67054;SHT31;53960;51.826;5.850;2022-10-26T16:45:02;16.67;83.93
67054;SHT31;53960;51.826;5.850;2022-10-26T16:47:28;16.68;84.37
67054;SHT31;53960;51.826;5.850;2022-10-26T16:49:53;16.65;84.30
67054;SHT31;53960;51.826;5.850;2022-10-26T16:52:19;16.68;84.11
67054;SHT31;53960;51.826;5.850;2022-10-26T16:54:44;16.69;84.23
67054;SHT31;53960;51.826;5.850;2022-10-26T16:57:09;16.65;84.42
67054;SHT31;53960;51.826;5.850;2022-10-26T16:59:35;16.65;84.51
67054;SHT31;53960;51.826;5.850;2022-10-26T17:02:00;16.67;84.53
67054;SHT31;53960;51.826;5.850;2022-10-26T17:04:26;16.72;84.37
67054;SHT31;53960;51.826;5.850;2022-10-26T17:06:51;16.71;84.37
67054;SHT31;53960;51.826;5.850;2022-10-26T17:09:16;16.68;84.49
67054;SHT31;53960;51.826;5.850;2022-10-26T17:11:42;16.65;84.86
67054;SHT31;53960;51.826;5.850;2022-10-26T17:14:07;16.65;84.89
67054;SHT31;53960;51.826;5.850;2022-10-26T17:16:32;16.61;84.89
67054;SHT31;53960;51.826;5.850;2022-10-26T17:18:59;16.58;84.86
67054;SHT31;53960;51.826;5.850;2022-10-26T17:21:32;16.50;85.07
67054;SHT31;53960;51.826;5.850;2022-10-26T17:23:59;16.48;85.35
67054;SHT31;53960;51.826;5.850;2022-10-26T17:26:25;16.43;85.62
67054;SHT31;53960;51.826;5.850;2022-10-26T17:28:51;16.37;85.63